createdAt,value
2018-04-28T00:00:19.178Z,12.12
2018-04-28T00:01:19.185Z,12.19
2018-04-28T00:02:19.213Z,12.18
2018-04-28T00:03:19.239Z,12.18
2018-04-28T00:04:19.254Z,12.07
2018-04-28T00:05:19.286Z,12.00
2018-04-28T00:06:19.300Z,12.05
2018-04-28T00:07:19.326Z,11.88
2018-04-28T00:08:19.348Z,11.85
2018-04-28T00:09:19.369Z,11.85
2018-04-28T00:10:19.395Z,11.78
2018-04-28T00:11:19.419Z,11.90
2018-04-28T00:12:19.447Z,11.79
2018-04-28T00:13:19.464Z,11.74
2018-04-28T00:14:19.492Z,11.77
2018-04-28T00:15:19.514Z,11.77
2018-04-28T00:16:19.529Z,11.69
2018-04-28T00:17:19.553Z,11.72
2018-04-28T00:18:19.580Z,11.75
2018-04-28T00:19:19.604Z,11.74
2018-04-28T00:20:19.627Z,11.69
2018-04-28T00:21:19.643Z,11.62
2018-04-28T00:22:19.673Z,11.59
2018-04-28T00:23:19.695Z,11.67
2018-04-28T00:24:19.713Z,11.66
2018-04-28T00:25:19.743Z,11.74
2018-04-28T00:26:19.763Z,11.74
2018-04-28T00:27:19.790Z,11.72
2018-04-28T00:28:19.809Z,11.69
2018-04-28T00:29:19.831Z,11.72
2018-04-28T00:30:19.856Z,11.79
2018-04-28T00:31:19.875Z,11.72
2018-04-28T00:32:19.901Z,11.70
2018-04-28T00:33:19.918Z,11.74
2018-04-28T00:34:19.944Z,11.72
2018-04-28T00:35:19.969Z,11.84
2018-04-28T00:36:20.001Z,11.63
2018-04-28T00:37:20.017Z,11.67
2018-04-28T00:38:20.038Z,11.69
2018-04-28T00:39:20.072Z,11.63
2018-04-28T00:40:20.082Z,11.44
2018-04-28T00:41:20.102Z,11.46
2018-04-28T00:42:20.127Z,11.41
2018-04-28T00:43:20.148Z,11.33
2018-04-28T00:44:20.172Z,11.35
2018-04-28T00:45:20.192Z,11.30
2018-04-28T00:46:20.224Z,11.38
2018-04-28T00:47:20.237Z,11.31
2018-04-28T00:48:20.262Z,11.33
2018-04-28T00:49:20.289Z,11.30
2018-04-28T00:50:20.312Z,11.36
2018-04-28T00:51:20.363Z,11.39
2018-04-28T00:52:20.357Z,11.33
2018-04-28T00:53:20.378Z,11.33
2018-04-28T00:54:20.402Z,11.35
2018-04-28T00:55:20.423Z,11.30
2018-04-28T00:56:20.450Z,11.30
2018-04-28T00:57:20.470Z,11.36
2018-04-28T00:58:20.488Z,11.39
2018-04-28T00:59:20.522Z,11.42
2018-04-28T01:00:20.537Z,11.54
2018-04-28T01:01:20.556Z,11.49
2018-04-28T01:02:20.582Z,11.38
2018-04-28T01:03:20.610Z,11.44
2018-04-28T01:04:20.626Z,11.42
2018-04-28T01:05:20.649Z,11.35
2018-04-28T01:06:20.674Z,11.30
2018-04-28T01:07:20.695Z,11.31
2018-04-28T01:08:20.720Z,11.31
2018-04-28T01:09:20.741Z,11.38
2018-04-28T01:10:20.761Z,11.28
2018-04-28T01:11:20.792Z,11.33
2018-04-28T01:12:20.805Z,11.24
2018-04-28T01:13:20.832Z,11.19
2018-04-28T01:14:20.850Z,11.21
2018-04-28T01:15:20.876Z,11.20
2018-04-28T01:16:20.896Z,11.12
2018-04-28T01:17:20.914Z,11.16
2018-04-28T01:18:20.946Z,11.03
2018-04-28T01:19:20.972Z,11.08
2018-04-28T01:20:20.986Z,11.09
2018-04-28T01:21:21.008Z,11.05
2018-04-28T01:22:21.035Z,11.09
2018-04-28T01:23:21.056Z,11.09
2018-04-28T01:24:21.075Z,11.13
2018-04-28T01:25:21.101Z,11.06
2018-04-28T01:26:21.123Z,11.08
2018-04-28T01:27:21.150Z,11.08
2018-04-28T01:28:21.165Z,10.99
2018-04-28T01:29:21.186Z,11.02
2018-04-28T01:30:21.209Z,11.06
2018-04-28T01:31:21.235Z,11.02
2018-04-28T01:32:21.255Z,10.95
2018-04-28T01:33:21.279Z,11.05
2018-04-28T01:34:21.314Z,10.99
2018-04-28T01:35:21.329Z,10.94
2018-04-28T01:36:21.345Z,10.93
2018-04-28T01:37:21.369Z,10.94
2018-04-28T01:38:21.393Z,11.03
2018-04-28T01:39:21.420Z,11.05
2018-04-28T01:40:21.436Z,10.99
2018-04-28T01:41:21.457Z,11.02
2018-04-28T01:42:21.481Z,11.06
2018-04-28T01:43:21.500Z,11.06
2018-04-28T01:44:21.530Z,11.05
2018-04-28T01:45:21.553Z,10.95
2018-04-28T01:46:21.573Z,10.94
2018-04-28T01:47:21.605Z,11.06
2018-04-28T01:48:21.620Z,11.09
2018-04-28T01:49:21.635Z,11.08
2018-04-28T01:50:21.659Z,11.06
2018-04-28T01:51:21.689Z,11.06
2018-04-28T01:52:21.712Z,11.05
2018-04-28T01:53:21.725Z,11.11
2018-04-28T01:54:21.753Z,11.19
2018-04-28T01:55:21.770Z,11.21
2018-04-28T01:58:41.094Z,11.21
2018-04-28T01:59:41.128Z,11.27
2018-04-28T02:00:41.148Z,11.21
2018-04-28T02:01:41.159Z,11.27
2018-04-28T02:02:41.184Z,11.26
2018-04-28T02:03:41.213Z,11.19
2018-04-28T02:04:41.232Z,11.19
2018-04-28T02:05:41.263Z,11.26
2018-04-28T02:06:41.277Z,11.19
2018-04-28T02:07:41.298Z,11.19
2018-04-28T02:08:41.319Z,11.26
2018-04-28T02:09:41.339Z,11.19
2018-04-28T02:10:41.363Z,11.16
2018-04-28T02:11:41.384Z,11.20
2018-04-28T02:12:41.417Z,11.09
2018-04-28T02:13:41.429Z,11.11
2018-04-28T02:14:41.455Z,11.11
2018-04-28T02:15:41.488Z,10.95
2018-04-28T02:16:41.500Z,10.93
2018-04-28T02:17:41.520Z,10.93
2018-04-28T02:18:41.541Z,10.90
2018-04-28T02:19:41.568Z,10.87
2018-04-28T02:20:41.583Z,10.91
2018-04-28T02:21:41.609Z,10.80
2018-04-28T02:22:41.629Z,10.76
2018-04-28T02:23:41.652Z,10.73
2018-04-28T02:24:41.673Z,10.78
2018-04-28T02:25:41.699Z,10.70
2018-04-28T02:26:41.720Z,10.65
2018-04-28T02:27:41.737Z,10.78
2018-04-28T02:28:41.763Z,10.76
2018-04-28T02:29:41.782Z,10.78
2018-04-28T02:30:41.819Z,10.81
2018-04-28T02:31:41.835Z,10.83
2018-04-28T02:32:41.891Z,10.87
2018-04-28T02:33:41.877Z,10.87
2018-04-28T02:34:41.898Z,10.91
2018-04-28T02:35:41.918Z,10.93
2018-04-28T02:36:41.944Z,10.88
2018-04-28T02:37:41.969Z,10.91
2018-04-28T02:38:41.993Z,10.87
2018-04-28T02:39:42.012Z,10.93
2018-04-28T02:40:42.036Z,10.88
2018-04-28T02:41:42.057Z,10.94
2018-04-28T02:42:42.075Z,10.93
2018-04-28T02:43:42.098Z,10.95
2018-04-28T02:44:42.118Z,10.98
2018-04-28T02:45:42.142Z,10.93
2018-04-28T02:46:42.169Z,10.88
2018-04-28T02:47:42.184Z,10.90
2018-04-28T02:48:42.210Z,10.93
2018-04-28T02:49:42.236Z,10.95
2018-04-28T02:50:42.256Z,11.01
2018-04-28T02:51:42.282Z,10.95
2018-04-28T02:52:42.301Z,11.05
2018-04-28T02:53:42.322Z,10.95
2018-04-28T02:54:42.342Z,11.01
2018-04-28T02:55:42.367Z,11.02
2018-04-28T02:56:42.388Z,10.94
2018-04-28T02:57:42.407Z,10.99
2018-04-28T02:58:42.436Z,11.02
2018-04-28T02:59:42.465Z,11.13
2018-04-28T03:00:42.476Z,11.08
2018-04-28T03:01:42.496Z,11.12
2018-04-28T03:02:42.521Z,11.13
2018-04-28T03:03:42.546Z,11.16
2018-04-28T03:04:42.566Z,11.19
2018-04-28T03:05:42.587Z,11.19
2018-04-28T03:06:42.610Z,11.16
2018-04-28T03:07:42.632Z,11.20
2018-04-28T03:08:42.703Z,11.33
2018-04-28T03:09:42.676Z,11.27
2018-04-28T03:10:42.701Z,11.30
2018-04-28T03:11:42.723Z,11.27
2018-04-28T03:12:42.752Z,11.28
2018-04-28T03:13:42.777Z,11.35
2018-04-28T03:14:42.786Z,11.30
2018-04-28T03:15:42.810Z,11.35
2018-04-28T03:16:42.834Z,11.41
2018-04-28T03:17:42.860Z,11.35
2018-04-28T03:18:42.880Z,11.38
2018-04-28T03:19:42.900Z,11.27
2018-04-28T03:20:42.921Z,11.26
2018-04-28T03:21:42.949Z,11.20
2018-04-28T03:22:42.970Z,11.19
2018-04-28T03:23:42.985Z,11.19
2018-04-28T03:24:43.013Z,11.21
2018-04-28T03:25:43.030Z,11.30
2018-04-28T03:26:43.055Z,11.33
2018-04-28T03:27:43.076Z,11.44
2018-04-28T03:28:43.104Z,11.44
2018-04-28T03:29:43.124Z,11.48
2018-04-28T03:30:43.147Z,11.42
2018-04-28T03:31:43.166Z,11.42
2018-04-28T03:32:43.194Z,11.39
2018-04-28T03:33:43.211Z,11.36
2018-04-28T03:34:43.236Z,11.35
2018-04-28T03:35:43.255Z,11.36
2018-04-28T03:36:43.279Z,11.35
2018-04-28T03:37:43.299Z,11.38
2018-04-28T03:38:43.326Z,11.33
2018-04-28T03:39:43.345Z,11.33
2018-04-28T03:40:43.374Z,11.35
2018-04-28T03:41:43.389Z,11.28
2018-04-28T03:42:43.416Z,11.51
2018-04-28T03:43:43.433Z,11.46
2018-04-28T03:44:43.463Z,11.46
2018-04-28T03:45:43.481Z,11.41
2018-04-28T03:46:43.500Z,11.46
2018-04-28T03:47:43.529Z,11.46
2018-04-28T03:48:43.543Z,11.45
2018-04-28T03:49:43.573Z,11.45
2018-04-28T03:50:43.598Z,11.42
2018-04-28T03:51:43.617Z,11.35
2018-04-28T03:52:43.633Z,11.23
2018-04-28T03:53:43.658Z,11.17
2018-04-28T03:54:43.731Z,10.98
2018-04-28T03:55:43.704Z,10.93
2018-04-28T03:56:43.726Z,10.91
2018-04-28T03:57:43.748Z,10.93
2018-04-28T03:58:43.770Z,10.98
2018-04-28T03:59:43.799Z,11.02
2018-04-28T04:00:43.816Z,10.95
2018-04-28T04:01:43.841Z,10.94
2018-04-28T04:02:43.858Z,10.91
2018-04-28T04:03:43.889Z,10.83
2018-04-28T04:04:43.903Z,10.86
2018-04-28T04:05:43.927Z,10.91
2018-04-28T04:06:43.952Z,10.90
2018-04-28T04:07:43.968Z,10.80
2018-04-28T04:08:43.995Z,10.86
2018-04-28T04:09:44.013Z,10.76
2018-04-28T04:10:44.038Z,10.73
2018-04-28T04:11:44.062Z,10.80
2018-04-28T04:12:44.081Z,10.68
2018-04-28T04:13:44.102Z,10.69
2018-04-28T04:14:44.122Z,10.76
2018-04-28T04:15:44.146Z,10.66
2018-04-28T04:16:44.171Z,10.58
2018-04-28T04:17:44.196Z,10.60
2018-04-28T04:18:44.212Z,10.44
2018-04-28T04:19:44.233Z,10.52
2018-04-28T04:20:44.258Z,10.47
2018-04-28T04:21:44.278Z,10.42
2018-04-28T04:22:44.302Z,10.31
2018-04-28T04:23:44.327Z,10.47
2018-04-28T04:24:44.349Z,10.43
2018-04-28T04:25:44.371Z,10.44
2018-04-28T04:26:44.387Z,10.47
2018-04-28T04:27:44.415Z,10.58
2018-04-28T04:28:44.434Z,10.43
2018-04-28T04:29:44.457Z,10.55
2018-04-28T04:30:44.476Z,10.54
2018-04-28T04:31:44.504Z,10.62
2018-04-28T04:32:44.526Z,10.72
2018-04-28T04:33:44.544Z,10.70
2018-04-28T04:34:44.565Z,10.81
2018-04-28T04:35:44.590Z,10.81
2018-04-28T04:36:44.632Z,10.87
2018-04-28T04:37:44.651Z,10.83
2018-04-28T04:38:44.651Z,10.83
2018-04-28T04:39:44.672Z,10.90
2018-04-28T04:40:44.695Z,10.90
2018-04-28T04:41:44.716Z,10.93
2018-04-28T04:42:44.742Z,10.94
2018-04-28T04:43:44.764Z,10.91
2018-04-28T04:44:44.784Z,10.93
2018-04-28T04:45:44.806Z,10.91
2018-04-28T04:46:44.831Z,10.86
2018-04-28T04:47:44.854Z,10.83
2018-04-28T04:48:44.875Z,10.84
2018-04-28T04:49:44.895Z,10.72
2018-04-28T04:50:44.916Z,10.83
2018-04-28T04:51:44.936Z,10.81
2018-04-28T04:52:44.962Z,10.78
2018-04-28T04:53:44.979Z,10.72
2018-04-28T04:54:45.006Z,10.76
2018-04-28T04:55:45.025Z,10.78
2018-04-28T04:56:45.049Z,10.81
2018-04-28T04:57:45.071Z,10.81
2018-04-28T04:58:45.093Z,10.94
2018-04-28T04:59:45.114Z,10.98
2018-04-28T05:00:45.135Z,11.01
2018-04-28T05:01:45.156Z,11.05
2018-04-28T05:02:45.180Z,11.02
2018-04-28T05:03:45.201Z,11.01
2018-04-28T05:04:45.220Z,11.11
2018-04-28T05:05:45.244Z,11.11
2018-04-28T05:06:45.278Z,11.09
2018-04-28T05:07:45.293Z,11.08
2018-04-28T05:08:45.317Z,11.11
2018-04-28T05:09:45.337Z,11.11
2018-04-28T05:10:45.356Z,11.06
2018-04-28T05:11:45.379Z,11.06
2018-04-28T05:12:45.398Z,11.05
2018-04-28T05:13:45.424Z,10.99
2018-04-28T05:14:45.446Z,10.91
2018-04-28T05:15:45.464Z,10.81
2018-04-28T05:16:45.490Z,10.90
2018-04-28T05:17:45.519Z,10.86
2018-04-28T05:18:45.534Z,10.87
2018-04-28T05:19:45.555Z,10.87
2018-04-28T05:20:45.580Z,10.99
2018-04-28T05:21:45.607Z,10.99
2018-04-28T05:22:45.627Z,10.98
2018-04-28T05:23:45.655Z,11.11
2018-04-28T05:24:45.663Z,11.19
2018-04-28T05:25:45.693Z,11.23
2018-04-28T05:26:45.715Z,11.33
2018-04-28T05:27:45.733Z,11.31
2018-04-28T05:28:45.758Z,11.36
2018-04-28T05:29:45.778Z,11.35
2018-04-28T05:30:45.799Z,11.35
2018-04-28T05:31:45.823Z,11.27
2018-04-28T05:32:45.848Z,11.31
2018-04-28T05:33:45.872Z,11.33
2018-04-28T05:34:45.892Z,11.39
2018-04-28T05:35:45.913Z,11.24
2018-04-28T05:36:45.937Z,11.53
2018-04-28T05:37:45.958Z,11.46
2018-04-28T05:38:45.982Z,11.45
2018-04-28T05:39:46.008Z,11.54
2018-04-28T05:40:46.027Z,11.66
2018-04-28T05:41:46.063Z,11.67
2018-04-28T05:42:46.068Z,11.72
2018-04-28T05:43:46.099Z,11.77
2018-04-28T05:44:46.124Z,11.88
2018-04-28T05:45:46.143Z,12.00
2018-04-28T05:46:46.162Z,12.05
2018-04-28T05:47:46.185Z,12.19
2018-04-28T05:48:46.205Z,12.18
2018-04-28T05:49:46.233Z,12.26
2018-04-28T05:50:46.254Z,12.33
2018-04-28T05:51:46.275Z,12.41
2018-04-28T05:52:46.298Z,12.46
2018-04-28T05:53:46.323Z,12.51
2018-04-28T05:54:46.348Z,12.63
2018-04-28T05:55:46.372Z,12.63
2018-04-28T05:56:46.391Z,12.77
2018-04-28T05:57:46.492Z,12.77
2018-04-28T05:58:46.438Z,12.70
2018-04-28T05:59:46.456Z,12.70
2018-04-28T06:00:46.485Z,12.77
2018-04-28T06:01:46.507Z,12.81
2018-04-28T06:02:46.530Z,12.87
2018-04-28T06:03:46.551Z,12.84
2018-04-28T06:04:46.574Z,12.87
2018-04-28T06:05:46.599Z,12.89
2018-04-28T06:06:46.622Z,12.84
2018-04-28T06:07:46.648Z,13.03
2018-04-28T06:08:46.668Z,13.01
2018-04-28T06:09:46.697Z,13.03
2018-04-28T06:10:46.718Z,13.10
2018-04-28T06:11:46.738Z,13.10
2018-04-28T06:12:46.763Z,13.19
2018-04-28T06:13:46.788Z,13.16
2018-04-28T06:14:46.812Z,13.12
2018-04-28T06:15:46.831Z,13.13
2018-04-28T06:16:46.862Z,13.19
2018-04-28T06:17:46.881Z,13.13
2018-04-28T06:18:46.901Z,13.07
2018-04-28T06:19:46.940Z,13.10
2018-04-28T06:20:47.037Z,13.12
2018-04-28T06:21:46.980Z,13.27
2018-04-28T06:22:47.003Z,13.25
2018-04-28T06:23:47.025Z,13.38
2018-04-28T06:24:47.055Z,13.47
2018-04-28T06:25:47.080Z,13.35
2018-04-28T06:26:47.100Z,13.47
2018-04-28T06:27:47.116Z,13.54
2018-04-28T06:28:47.141Z,13.54
2018-04-28T06:29:47.167Z,13.68
2018-04-28T06:30:47.196Z,13.66
2018-04-28T06:31:47.211Z,13.80
2018-04-28T06:32:47.240Z,13.87
2018-04-28T06:33:47.265Z,13.81
2018-04-28T06:34:47.285Z,13.91
2018-04-28T06:35:47.355Z,13.90
2018-04-28T06:36:47.331Z,13.90
2018-04-28T06:37:47.355Z,13.69
2018-04-28T06:38:47.397Z,13.66
2018-04-28T06:39:47.409Z,13.68
2018-04-28T06:40:47.435Z,13.66
2018-04-28T06:41:47.469Z,13.66
2018-04-28T06:42:47.477Z,13.65
2018-04-28T06:43:47.506Z,13.73
2018-04-28T06:44:47.529Z,13.68
2018-04-28T06:45:47.554Z,13.48
2018-04-28T06:46:47.579Z,13.50
2018-04-28T06:47:47.599Z,13.47
2018-04-28T06:48:47.632Z,13.47
2018-04-28T06:49:47.651Z,13.41
2018-04-28T06:50:47.669Z,13.47
2018-04-28T06:51:47.694Z,13.46
2018-04-28T06:52:47.720Z,13.46
2018-04-28T06:53:47.747Z,13.39
2018-04-28T06:54:47.765Z,13.43
2018-04-28T06:55:47.795Z,13.44
2018-04-28T06:56:47.815Z,13.48
2018-04-28T06:57:47.841Z,13.51
2018-04-28T06:58:47.869Z,13.66
2018-04-28T06:59:47.884Z,13.65
2018-04-28T07:00:47.910Z,13.71
2018-04-28T07:01:47.937Z,13.76
2018-04-28T07:02:47.966Z,13.81
2018-04-28T07:03:47.989Z,13.94
2018-04-28T07:04:48.010Z,13.90
2018-04-28T07:05:48.039Z,13.94
2018-04-28T07:06:48.059Z,14.11
2018-04-28T07:07:48.082Z,14.16
2018-04-28T07:08:48.109Z,14.29
2018-04-28T07:09:48.130Z,14.16
2018-04-28T07:10:48.233Z,14.16
2018-04-28T07:11:48.177Z,14.26
2018-04-28T07:12:48.205Z,14.38
2018-04-28T07:13:48.228Z,14.36
2018-04-28T07:14:48.253Z,14.29
2018-04-28T07:15:48.278Z,14.38
2018-04-28T07:16:48.298Z,14.39
2018-04-28T07:17:48.325Z,14.36
2018-04-28T07:18:48.347Z,14.46
2018-04-28T07:19:48.375Z,14.45
2018-04-28T07:20:48.399Z,14.46
2018-04-28T07:21:48.425Z,14.52
2018-04-28T07:22:48.450Z,14.49
2018-04-28T07:23:48.476Z,14.54
2018-04-28T07:24:48.492Z,14.54
2018-04-28T07:25:48.527Z,14.63
2018-04-28T07:26:48.549Z,14.69
2018-04-28T07:27:48.571Z,14.75
2018-04-28T07:28:48.596Z,14.80
2018-04-28T07:29:48.622Z,14.75
2018-04-28T07:30:48.648Z,14.80
2018-04-28T07:31:48.671Z,14.80
2018-04-28T07:32:48.732Z,14.79
2018-04-28T07:33:48.719Z,14.82
2018-04-28T07:34:48.742Z,14.74
2018-04-28T07:35:48.767Z,14.66
2018-04-28T07:36:48.795Z,14.72
2018-04-28T07:37:48.818Z,14.59
2018-04-28T07:38:48.844Z,14.64
2018-04-28T07:39:48.866Z,14.75
2018-04-28T07:40:48.892Z,14.71
2018-04-28T07:41:48.922Z,14.66
2018-04-28T07:42:48.946Z,14.54
2018-04-28T07:43:48.969Z,14.61
2018-04-28T07:44:48.997Z,14.63
2018-04-28T07:45:49.017Z,14.63
2018-04-28T07:46:49.043Z,14.79
2018-04-28T07:47:49.067Z,14.82
2018-04-28T07:48:49.101Z,14.91
2018-04-28T07:49:49.117Z,14.91
2018-04-28T07:50:49.144Z,15.00
2018-04-28T07:51:49.169Z,15.00
2018-04-28T07:52:49.193Z,15.00
2018-04-28T07:53:49.231Z,15.11
2018-04-28T07:54:49.252Z,15.15
2018-04-28T07:55:49.268Z,15.18
2018-04-28T07:56:49.296Z,15.18
2018-04-28T07:57:49.320Z,15.30
2018-04-28T07:58:49.342Z,15.15
2018-04-28T07:59:49.370Z,14.98
2018-04-28T08:00:49.396Z,15.03
2018-04-28T08:01:49.421Z,15.04
2018-04-28T08:02:49.447Z,15.00
2018-04-28T08:03:49.470Z,14.98
2018-04-28T08:04:49.501Z,14.85
2018-04-28T08:05:49.528Z,14.86
2018-04-28T08:06:49.547Z,14.94
2018-04-28T08:07:49.578Z,14.86
2018-04-28T08:08:49.597Z,14.90
2018-04-28T08:09:49.616Z,14.90
2018-04-28T08:10:49.645Z,14.83
2018-04-28T08:11:49.667Z,14.85
2018-04-28T08:12:49.692Z,14.91
2018-04-28T08:13:49.720Z,15.04
2018-04-28T08:14:49.744Z,15.04
2018-04-28T08:15:49.775Z,15.20
2018-04-28T08:16:49.797Z,15.12
2018-04-28T08:17:49.822Z,15.12
2018-04-28T08:18:49.846Z,15.25
2018-04-28T08:19:49.873Z,15.34
2018-04-28T08:20:49.912Z,15.37
2018-04-28T08:21:49.927Z,15.44
2018-04-28T08:22:49.948Z,15.49
2018-04-28T08:23:49.970Z,15.64
2018-04-28T08:24:49.996Z,15.62
2018-04-28T08:25:50.017Z,15.66
2018-04-28T08:26:50.051Z,15.73
2018-04-28T08:27:50.074Z,15.70
2018-04-28T08:28:50.100Z,15.68
2018-04-28T08:29:50.121Z,15.81
2018-04-28T08:30:50.150Z,15.92
2018-04-28T08:31:50.181Z,15.95
2018-04-28T08:32:50.199Z,15.95
2018-04-28T08:33:50.231Z,16.08
2018-04-28T08:34:50.249Z,16.14
2018-04-28T08:35:50.274Z,16.08
2018-04-28T08:36:50.324Z,16.16
2018-04-28T08:37:50.325Z,16.23
2018-04-28T08:38:50.350Z,16.26
2018-04-28T08:39:50.379Z,16.27
2018-04-28T08:40:50.399Z,16.27
2018-04-28T08:41:50.425Z,16.27
2018-04-28T08:42:50.454Z,16.08
2018-04-28T08:43:50.473Z,16.13
2018-04-28T08:44:50.504Z,16.23
2018-04-28T08:45:50.532Z,16.27
2018-04-28T08:46:50.556Z,16.29
2018-04-28T08:47:50.575Z,16.18
2018-04-28T08:48:50.605Z,16.10
2018-04-28T08:49:50.630Z,16.11
2018-04-28T08:50:50.657Z,16.01
2018-04-28T08:51:50.681Z,16.01
2018-04-28T08:52:50.707Z,16.04
2018-04-28T08:53:50.734Z,16.07
2018-04-28T08:54:50.764Z,16.08
2018-04-28T08:55:50.780Z,16.17
2018-04-28T08:56:50.809Z,16.11
2018-04-28T08:57:50.834Z,15.98
2018-04-28T08:58:50.861Z,16.04
2018-04-28T08:59:50.884Z,15.99
2018-04-28T09:00:50.910Z,16.08
2018-04-28T09:01:50.938Z,16.13
2018-04-28T09:02:50.964Z,16.11
2018-04-28T09:03:50.993Z,16.16
2018-04-28T09:04:51.015Z,16.13
2018-04-28T09:05:51.041Z,16.18
2018-04-28T09:06:51.066Z,16.17
2018-04-28T09:07:51.092Z,16.26
2018-04-28T09:08:51.113Z,16.18
2018-04-28T09:09:51.146Z,16.30
2018-04-28T09:10:51.165Z,16.32
2018-04-28T09:11:51.197Z,16.29
2018-04-28T09:12:51.217Z,16.40
2018-04-28T09:13:51.239Z,16.45
2018-04-28T09:14:51.279Z,16.44
2018-04-28T09:15:51.292Z,16.55
2018-04-28T09:16:51.320Z,16.54
2018-04-28T09:17:51.343Z,16.51
2018-04-28T09:18:51.368Z,16.69
2018-04-28T09:19:51.396Z,16.75
2018-04-28T09:20:51.422Z,16.77
2018-04-28T09:21:51.459Z,16.70
2018-04-28T09:22:51.472Z,16.69
2018-04-28T09:23:51.498Z,16.80
2018-04-28T09:24:51.523Z,16.78
2018-04-28T09:25:51.549Z,16.80
2018-04-28T09:26:51.572Z,16.75
2018-04-28T09:27:51.598Z,16.90
2018-04-28T09:28:51.623Z,16.84
2018-04-28T09:29:51.652Z,17.00
2018-04-28T09:30:51.676Z,17.06
2018-04-28T09:31:51.703Z,17.20
2018-04-28T09:32:51.731Z,17.33
2018-04-28T09:33:51.755Z,17.17
2018-04-28T09:34:51.780Z,17.17
2018-04-28T09:35:51.811Z,17.22
2018-04-28T09:36:51.835Z,17.20
2018-04-28T09:37:51.858Z,17.27
2018-04-28T09:38:51.886Z,17.24
2018-04-28T09:39:51.979Z,17.27
2018-04-28T09:40:51.941Z,17.45
2018-04-28T09:41:51.962Z,17.42
2018-04-28T09:42:51.989Z,17.36
2018-04-28T09:43:52.015Z,17.40
2018-04-28T09:44:52.045Z,17.40
2018-04-28T09:45:52.061Z,17.28
2018-04-28T09:46:52.095Z,17.32
2018-04-28T09:47:52.116Z,17.33
2018-04-28T09:48:52.146Z,17.43
2018-04-28T09:49:52.177Z,17.36
2018-04-28T09:50:52.205Z,17.25
2018-04-28T09:51:52.224Z,17.17
2018-04-28T09:52:52.248Z,17.14
2018-04-28T09:53:52.280Z,17.18
2018-04-28T09:54:52.305Z,17.32
2018-04-28T09:55:52.335Z,17.25
2018-04-28T09:56:52.357Z,17.24
2018-04-28T09:57:52.382Z,17.21
2018-04-28T09:58:52.463Z,17.07
2018-04-28T09:59:52.441Z,17.12
2018-04-28T10:00:52.460Z,17.32
2018-04-28T10:01:52.486Z,17.38
2018-04-28T10:02:52.517Z,17.62
2018-04-28T10:03:52.538Z,17.77
2018-04-28T10:04:52.566Z,17.79
2018-04-28T10:05:52.604Z,17.77
2018-04-28T10:06:52.617Z,17.86
2018-04-28T10:07:52.644Z,17.99
2018-04-28T10:08:52.672Z,18.32
2018-04-28T10:09:52.701Z,18.41
2018-04-28T10:10:52.735Z,18.64
2018-04-28T10:11:52.750Z,18.76
2018-04-28T10:12:52.777Z,18.93
2018-04-28T10:13:52.807Z,19.02
2018-04-28T10:14:52.830Z,18.93
2018-04-28T10:15:52.861Z,18.69
2018-04-28T10:16:52.889Z,18.83
2018-04-28T10:17:52.912Z,18.44
2018-04-28T10:18:52.941Z,18.28
2018-04-28T10:19:52.968Z,18.25
2018-04-28T10:20:52.996Z,18.34
2018-04-28T10:21:53.026Z,18.41
2018-04-28T10:22:53.051Z,18.38
2018-04-28T10:23:53.074Z,18.29
2018-04-28T10:24:53.106Z,18.19
2018-04-28T10:25:53.139Z,18.20
2018-04-28T10:26:53.162Z,18.31
2018-04-28T10:27:53.187Z,18.31
2018-04-28T10:28:53.223Z,18.41
2018-04-28T10:29:53.246Z,18.39
2018-04-28T10:30:53.308Z,18.42
2018-04-28T10:31:53.302Z,18.41
2018-04-28T10:32:53.325Z,18.46
2018-04-28T10:33:53.359Z,18.39
2018-04-28T10:34:53.391Z,18.31
2018-04-28T10:35:53.407Z,18.36
2018-04-28T10:36:53.459Z,18.32
2018-04-28T10:37:53.461Z,18.23
2018-04-28T10:38:53.500Z,18.47
2018-04-28T10:39:53.516Z,18.76
2018-04-28T10:40:53.545Z,19.05
2018-04-28T10:41:53.570Z,19.40
2018-04-28T10:42:53.602Z,19.40
2018-04-28T10:43:53.629Z,19.40
2018-04-28T10:44:53.657Z,19.58
2018-04-28T10:45:53.682Z,19.23
2018-04-28T10:46:53.709Z,19.39
2018-04-28T10:47:53.735Z,19.52
2018-04-28T10:48:53.767Z,19.64
2018-04-28T10:49:53.801Z,19.68
2018-04-28T10:50:53.819Z,19.52
2018-04-28T10:51:53.852Z,19.46
2018-04-28T10:52:53.873Z,19.47
2018-04-28T10:53:54.001Z,19.55
2018-04-28T10:54:53.934Z,19.67
2018-04-28T10:55:53.964Z,19.83
2018-04-28T10:56:53.989Z,20.12
2018-04-28T10:57:54.028Z,20.20
2018-04-28T10:58:54.048Z,20.73
2018-04-28T10:59:54.083Z,20.98
2018-04-28T11:00:54.108Z,20.88
2018-04-28T11:01:54.139Z,20.82
2018-04-28T11:02:54.161Z,20.25
2018-04-28T11:03:54.193Z,19.72
2018-04-28T11:04:54.224Z,19.24
2018-04-28T11:05:54.251Z,18.94
2018-04-28T11:06:54.283Z,18.79
2018-04-28T11:07:54.309Z,18.65
2018-04-28T11:08:54.348Z,18.46
2018-04-28T11:09:54.381Z,18.47
2018-04-28T11:10:54.402Z,18.41
2018-04-28T11:11:54.433Z,18.38
2018-04-28T11:12:54.458Z,18.39
2018-04-28T11:13:54.498Z,18.39
2018-04-28T11:14:54.515Z,18.57
2018-04-28T11:15:54.545Z,18.62
2018-04-28T11:16:54.577Z,18.64
2018-04-28T11:17:54.598Z,18.57
2018-04-28T11:18:54.633Z,18.79
2018-04-28T11:19:54.695Z,18.65
2018-04-28T11:20:54.689Z,18.59
2018-04-28T11:21:54.720Z,18.44
2018-04-28T11:22:54.747Z,18.35
2018-04-28T11:23:54.773Z,18.23
2018-04-28T11:24:54.801Z,18.11
2018-04-28T11:25:54.965Z,17.89
2018-04-28T11:26:54.853Z,17.83
2018-04-28T11:27:54.882Z,17.83
2018-04-28T11:28:54.911Z,17.83
2018-04-28T11:29:54.942Z,17.86
2018-04-28T11:30:54.971Z,17.86
2018-04-28T11:31:54.996Z,17.73
2018-04-28T11:32:55.065Z,17.74
2018-04-28T11:33:55.047Z,17.68
2018-04-28T11:34:55.081Z,17.65
2018-04-28T11:35:55.107Z,17.62
2018-04-28T11:36:55.141Z,17.63
2018-04-28T11:37:55.161Z,17.58
2018-04-28T11:38:55.183Z,17.45
2018-04-28T11:39:55.217Z,17.54
2018-04-28T11:40:55.238Z,17.43
2018-04-28T11:41:55.287Z,17.65
2018-04-28T11:42:55.292Z,17.76
2018-04-28T11:43:55.316Z,17.86
2018-04-28T11:44:55.347Z,17.83
2018-04-28T11:45:55.372Z,18.02
2018-04-28T11:46:55.403Z,18.05
2018-04-28T11:47:55.436Z,18.05
2018-04-28T11:48:55.454Z,18.19
2018-04-28T11:49:55.485Z,18.25
2018-04-28T11:50:55.505Z,18.60
2018-04-28T11:51:55.534Z,18.76
2018-04-28T11:52:55.562Z,18.82
2018-04-28T11:53:55.590Z,19.20
2018-04-28T11:54:55.619Z,21.26
2018-04-28T11:55:55.652Z,21.06
2018-04-28T11:56:55.666Z,20.51
2018-04-28T11:57:55.700Z,20.23
2018-04-28T11:58:55.770Z,20.02
2018-04-28T11:59:55.754Z,19.64
2018-04-28T12:00:55.795Z,19.23
2018-04-28T12:01:55.815Z,18.93
2018-04-28T12:02:55.839Z,18.68
2018-04-28T12:03:55.867Z,18.41
2018-04-28T12:04:55.907Z,18.34
2018-04-28T12:05:55.927Z,18.29
2018-04-28T12:06:55.948Z,18.23
2018-04-28T12:07:55.986Z,18.01
2018-04-28T12:08:56.008Z,17.81
2018-04-28T12:09:56.031Z,17.84
2018-04-28T12:10:56.063Z,17.74
2018-04-28T12:11:56.087Z,17.76
2018-04-28T12:12:56.118Z,17.65
2018-04-28T12:13:56.142Z,17.70
2018-04-28T12:14:56.173Z,17.60
2018-04-28T12:15:56.195Z,17.54
2018-04-28T12:16:56.226Z,17.53
2018-04-28T12:17:56.252Z,17.66
2018-04-28T12:18:56.275Z,17.76
2018-04-28T12:19:56.305Z,17.74
2018-04-28T12:20:56.349Z,17.84
2018-04-28T12:21:56.355Z,17.87
2018-04-28T12:22:56.389Z,17.87
2018-04-28T12:23:56.420Z,17.94
2018-04-28T12:24:56.441Z,17.94
2018-04-28T12:25:56.471Z,17.96
2018-04-28T12:26:56.495Z,18.07
2018-04-28T12:27:56.519Z,18.20
2018-04-28T12:28:56.549Z,18.49
2018-04-28T12:29:56.659Z,18.69
2018-04-28T12:30:56.603Z,18.91
2018-04-28T12:31:56.624Z,19.24
2018-04-28T12:32:56.662Z,19.78
2018-04-28T12:33:56.687Z,20.57
2018-04-28T12:34:56.711Z,20.83
2018-04-28T12:35:56.747Z,21.56
2018-04-28T12:36:56.773Z,23.97
2018-04-28T12:37:56.799Z,24.46
2018-04-28T12:38:56.825Z,24.87
2018-04-28T12:39:56.853Z,24.60
2018-04-28T12:40:56.878Z,24.11
2018-04-28T12:41:56.903Z,23.41
2018-04-28T12:42:56.939Z,22.72
2018-04-28T12:43:56.964Z,22.41
2018-04-28T12:44:56.996Z,21.59
2018-04-28T12:45:57.028Z,21.22
2018-04-28T12:46:57.058Z,21.83
2018-04-28T12:47:57.087Z,21.67
2018-04-28T12:48:57.116Z,21.49
2018-04-28T12:49:57.143Z,21.63
2018-04-28T12:50:57.178Z,22.14
2018-04-28T12:51:57.202Z,22.49
2018-04-28T12:52:57.236Z,21.70
2018-04-28T12:53:57.264Z,22.84
2018-04-28T12:54:57.297Z,22.75